Weather at Tampa International Airport

Public forecast

Using degrees Fahrenheit for public forecast. Weather courtesy of forecast.io.

Current aviation weather report (METAR) for Tampa International Airport

Retrieved 2021/03/05 22:53 UTC (2 hours ago):

KTPA 052253Z 29010KT 10SM BKN260 22/07 A2996 RMK AO2 SLP145 T02170072

Aviation forecast (TAF) for Tampa International Airport

Retrieved 2021-03-06 00:33 UTC (10 minutes ago):

TAF KTPA 052331Z 0600/0706 32006KT P6SM BKN250 FM060400 VRB04KT P6SM SCT100 OVC250 FM061500 07007KT P6SM VCSH SCT030 BKN050 OVC100 FM061800 03008KT 6SM SHRA SCT010 BKN030 OVC050